Terminal Aerodrome Forecast
Issued by NWS

Home | Current Version | Previous Version | Text Only | Print | Product List | Glossary On
Versions: 1 2 3 4 5 6 7 8 9 10 11 12 13 14 15 16 17
232
FTUS43 KGRR 090543
TAFJXN
TAF
KJXN 090543Z 0906/1006 28008KT 1SM -SN BR OVC006
     FM090700 28010KT 6SM -SN BR OVC009
     FM091200 30010KT P6SM -SHSN OVC012
     FM091600 31012G21KT 6SM -SHSN OVC015=

USA.gov is the U.S. government's official web portal to all federal, state and local government web resources and services.